createdAt,value
2022-11-05T00:05:23.585Z,41.37
2022-11-05T00:10:49.313Z,45.53
2022-11-05T00:16:36.349Z,34.58
2022-11-05T00:22:19.491Z,44.92
2022-11-05T00:27:49.921Z,43.35
2022-11-05T00:33:20.786Z,37.28
2022-11-05T00:38:44.345Z,23.73
2022-11-05T00:44:30.244Z,24.23
2022-11-05T00:50:00.909Z,25.67
2022-11-05T00:55:26.336Z,26.33
2022-11-05T01:00:56.995Z,37.15
2022-11-05T01:06:27.760Z,36.28
2022-11-05T01:11:55.802Z,31.70
2022-11-05T01:17:22.165Z,30.35
2022-11-05T01:22:52.816Z,36.08
2022-11-05T01:28:21.662Z,36.20
2022-11-05T01:33:45.951Z,34.72
2022-11-05T01:39:16.992Z,34.92
2022-11-05T01:45:01.292Z,32.50
2022-11-05T01:50:36.044Z,38.42
2022-11-05T01:56:10.947Z,37.47
2022-11-05T02:01:36.549Z,31.85
2022-11-05T02:07:01.497Z,29.70
2022-11-05T02:12:29.263Z,36.40
2022-11-05T02:18:11.205Z,31.35
2022-11-05T02:24:02.359Z,36.55
2022-11-05T02:30:06.683Z,33.13
2022-11-05T02:35:54.009Z,43.25
2022-11-05T02:41:24.855Z,41.42
2022-11-05T02:46:57.690Z,40.00
2022-11-05T02:52:38.825Z,37.13
2022-11-05T02:58:04.210Z,42.55
2022-11-05T03:03:38.399Z,41.63
2022-11-05T03:09:33.546Z,36.20
2022-11-05T03:15:13.845Z,40.20
2022-11-05T03:20:48.378Z,37.05
2022-11-05T03:26:24.640Z,32.10
2022-11-05T03:31:56.681Z,34.67
2022-11-05T03:37:29.157Z,39.50
2022-11-05T03:43:00.691Z,39.38
2022-11-05T03:48:27.783Z,37.10
2022-11-05T03:53:59.083Z,39.10
2022-11-05T03:59:31.448Z,40.08
2022-11-05T04:04:55.976Z,38.90
2022-11-05T04:10:42.820Z,29.58
2022-11-05T04:16:30.231Z,35.83
2022-11-05T04:22:17.007Z,40.53
2022-11-05T04:27:44.914Z,37.03
2022-11-05T04:33:16.311Z,39.15
2022-11-05T04:38:38.565Z,38.28
2022-11-05T04:44:04.387Z,39.00
2022-11-05T04:49:34.899Z,39.58
2022-11-05T05:00:26.943Z,45.05
2022-11-05T05:05:58.255Z,40.88
2022-11-05T05:11:25.528Z,39.83
2022-11-05T05:16:52.095Z,37.95
2022-11-05T05:22:23.219Z,34.65
2022-11-05T05:27:52.628Z,41.63
2022-11-05T05:33:17.951Z,31.10
2022-11-05T05:38:44.275Z,37.08
2022-11-05T05:44:13.581Z,32.13
2022-11-05T05:49:42.502Z,37.83
2022-11-05T05:55:12.605Z,41.15
2022-11-05T06:00:41.144Z,36.67
2022-11-05T06:06:06.276Z,41.85
2022-11-05T06:11:30.883Z,51.70
2022-11-05T06:17:00.318Z,36.00
2022-11-05T06:22:23.853Z,45.08
2022-11-05T06:27:50.750Z,40.45
2022-11-05T06:33:19.644Z,42.67
2022-11-05T06:38:43.495Z,54.42
2022-11-05T06:44:08.360Z,56.42
2022-11-05T06:49:37.594Z,57.35
2022-11-05T06:55:02.491Z,46.90
2022-11-05T07:00:33.807Z,39.38
2022-11-05T07:06:04.571Z,39.67
2022-11-05T07:11:32.078Z,36.13
2022-11-05T07:22:32.883Z,25.67
2022-11-05T07:27:59.998Z,27.45
2022-11-05T07:33:32.348Z,23.60
2022-11-05T07:39:00.579Z,23.27
2022-11-05T07:44:29.238Z,20.48
2022-11-05T07:50:00.233Z,27.90
2022-11-05T07:55:23.787Z,22.15
2022-11-05T08:00:51.700Z,23.85
2022-11-05T08:06:23.416Z,21.47
2022-11-05T08:11:58.575Z,24.90
2022-11-05T08:17:30.508Z,23.30
2022-11-05T08:22:56.907Z,25.75
2022-11-05T08:28:21.919Z,27.40
2022-11-05T08:33:45.058Z,27.73
2022-11-05T08:39:18.796Z,29.90
2022-11-05T08:44:48.193Z,28.05
2022-11-05T08:50:11.842Z,31.95
2022-11-05T08:55:44.002Z,32.15
2022-11-05T09:01:09.800Z,28.40
2022-11-05T09:06:39.089Z,21.43
2022-11-05T09:12:12.692Z,22.88
2022-11-05T09:17:38.754Z,22.42
2022-11-05T09:23:01.901Z,20.75
2022-11-05T09:28:28.604Z,24.80
2022-11-05T09:33:52.877Z,17.77
2022-11-05T09:39:16.462Z,20.50
2022-11-05T09:44:45.966Z,23.70
2022-11-05T09:50:20.139Z,17.20
2022-11-05T09:55:46.733Z,20.67
2022-11-05T10:01:26.698Z,17.00
2022-11-05T10:07:00.986Z,17.25
2022-11-05T10:12:38.713Z,20.55
2022-11-05T10:18:20.200Z,16.30
2022-11-05T10:23:44.458Z,17.85
2022-11-05T10:29:17.096Z,31.98
2022-11-05T10:34:45.948Z,16.55
2022-11-05T10:40:20.820Z,23.35
2022-11-05T10:45:57.360Z,16.00
2022-11-05T10:51:22.240Z,17.73
2022-11-05T10:56:45.867Z,14.05
2022-11-05T11:02:22.885Z,17.40
2022-11-05T11:07:55.177Z,16.45
2022-11-05T11:13:24.312Z,18.40
2022-11-05T11:18:47.907Z,21.33
2022-11-05T11:24:23.447Z,15.10
2022-11-05T11:35:22.773Z,11.85
2022-11-05T11:40:52.767Z,16.58
2022-11-05T11:46:20.912Z,16.75
2022-11-05T11:51:51.605Z,14.68
2022-11-05T11:57:24.638Z,16.80
2022-11-05T12:03:14.725Z,12.70
2022-11-05T12:08:58.199Z,12.88
2022-11-05T12:14:46.100Z,12.63
2022-11-05T12:20:30.145Z,12.73
2022-11-05T12:25:59.406Z,11.48
2022-11-05T12:37:13.715Z,12.48
2022-11-05T12:43:11.970Z,11.60
2022-11-05T12:48:56.820Z,12.80
2022-11-05T12:54:38.948Z,10.65
2022-11-05T13:00:15.815Z,8.98
2022-11-05T13:05:52.391Z,9.90
2022-11-05T13:11:22.545Z,9.95
2022-11-05T13:16:55.548Z,11.50
2022-11-05T13:22:32.094Z,11.37
2022-11-05T13:28:07.832Z,11.35
2022-11-05T13:33:41.201Z,17.90
2022-11-05T13:39:19.174Z,18.27
2022-11-05T13:45:26.751Z,27.23
2022-11-05T13:51:22.456Z,25.58
2022-11-05T13:57:04.924Z,17.80
2022-11-05T14:02:37.264Z,15.32
2022-11-05T14:08:11.428Z,17.10
2022-11-05T14:13:45.598Z,11.38
2022-11-05T14:19:36.027Z,16.77
2022-11-05T14:25:03.822Z,16.92
2022-11-05T14:30:46.225Z,25.55
2022-11-05T14:36:32.322Z,26.85
2022-11-05T14:42:04.911Z,32.35
2022-11-05T14:47:41.804Z,27.05
2022-11-05T14:53:14.050Z,30.75
2022-11-05T14:58:41.944Z,34.33
2022-11-05T15:04:27.237Z,30.98
2022-11-05T15:15:40.224Z,43.28
2022-11-05T15:21:05.927Z,35.83
2022-11-05T15:26:43.652Z,49.00
2022-11-05T15:32:18.951Z,36.95
2022-11-05T15:37:58.859Z,35.35
2022-11-05T15:43:31.435Z,36.38
2022-11-05T15:49:00.816Z,33.92
2022-11-05T15:54:30.582Z,47.85
2022-11-05T16:00:04.028Z,37.47
2022-11-05T16:05:35.280Z,31.17
2022-11-05T16:11:06.513Z,25.73
2022-11-05T16:16:35.746Z,27.80
2022-11-05T16:22:04.193Z,28.63
2022-11-05T16:27:34.916Z,21.65
2022-11-05T16:33:09.030Z,35.15
2022-11-05T16:38:37.875Z,33.25
2022-11-05T16:44:11.240Z,26.08
2022-11-05T16:49:40.464Z,28.98
2022-11-05T16:55:04.956Z,23.23
2022-11-05T17:00:32.888Z,30.98
2022-11-05T17:06:03.375Z,27.77
2022-11-05T17:11:32.999Z,20.58
2022-11-05T17:17:01.365Z,23.92
2022-11-05T17:27:49.146Z,20.23
2022-11-05T17:33:17.618Z,19.25
2022-11-05T17:38:44.514Z,19.35
2022-11-05T17:44:11.755Z,23.20
2022-11-05T17:49:36.096Z,18.48
2022-11-05T17:55:08.606Z,18.60
2022-11-05T18:00:39.301Z,14.07
2022-11-05T18:06:14.348Z,17.90
2022-11-05T18:17:27.046Z,17.52
2022-11-05T18:22:59.355Z,18.13
2022-11-05T18:28:23.562Z,17.50
2022-11-05T18:33:49.572Z,20.35
2022-11-05T18:39:17.277Z,18.73
2022-11-05T18:44:47.524Z,26.15
2022-11-05T18:50:18.566Z,26.10
2022-11-05T18:55:51.104Z,32.22
2022-11-05T19:01:23.242Z,27.17
2022-11-05T19:06:56.934Z,21.90
2022-11-05T19:12:33.489Z,25.27
2022-11-05T19:18:05.671Z,24.85
2022-11-05T19:23:46.677Z,22.95
2022-11-05T19:29:16.935Z,22.23
2022-11-05T19:34:45.678Z,25.13
2022-11-05T19:40:18.245Z,25.10
2022-11-05T19:45:45.022Z,27.60
2022-11-05T19:51:16.212Z,22.00
2022-11-05T19:56:42.419Z,23.42
2022-11-05T20:02:16.188Z,19.10
2022-11-05T20:07:43.614Z,23.15
2022-11-05T20:13:19.767Z,21.80
2022-11-05T20:18:52.211Z,21.95
2022-11-05T20:24:24.800Z,19.90
2022-11-05T20:29:54.844Z,23.98
2022-11-05T20:35:21.164Z,20.17
2022-11-05T20:40:46.029Z,23.67
2022-11-05T20:46:16.976Z,17.73
2022-11-05T20:51:42.422Z,21.98
2022-11-05T20:57:09.057Z,18.60
2022-11-05T21:02:35.961Z,16.75
2022-11-05T21:08:06.578Z,20.80
2022-11-05T21:13:41.791Z,20.05
2022-11-05T21:19:32.486Z,19.63
2022-11-05T21:25:06.008Z,21.10
2022-11-05T21:30:34.726Z,22.33
2022-11-05T21:36:08.217Z,20.00
2022-11-05T21:41:33.379Z,20.50
2022-11-05T21:46:58.391Z,19.17
2022-11-05T21:58:32.769Z,20.92
2022-11-05T22:04:03.308Z,22.00
2022-11-05T22:09:33.120Z,19.15
2022-11-05T22:15:04.310Z,20.55
2022-11-05T22:20:28.184Z,15.90
2022-11-05T22:25:59.388Z,20.33
2022-11-05T22:31:35.690Z,14.75
2022-11-05T22:37:05.830Z,18.27
2022-11-05T22:42:29.580Z,15.00
2022-11-05T22:47:56.678Z,17.77
2022-11-05T22:53:25.644Z,15.63
2022-11-05T22:58:53.124Z,16.20
2022-11-05T23:04:23.984Z,13.57
2022-11-05T23:10:10.390Z,14.48
2022-11-05T23:15:56.633Z,20.02
2022-11-05T23:21:49.923Z,18.08
2022-11-05T23:27:18.328Z,19.65
2022-11-05T23:32:42.331Z,21.48
2022-11-05T23:38:27.566Z,21.58
2022-11-05T23:44:14.228Z,26.15
2022-11-05T23:49:43.630Z,20.73
2022-11-05T23:55:10.258Z,25.20
